Time;durP1;ratioP1;P1;durP2;ratioP2;P2;SDS_P1;SDS_P2;PMS_P1;PMS_P2;Temp;Humidity;BMP_temperature;BMP_pressure;BME280_temperature;BME280_humidity;BME280_pressure;Samples;Min_cycle;Max_cycle;Signal;HPM_P1;HPM_P2
2022/06/03 00:02:43;;;;;;;;;2.33;2.33;;;;;;;;5076100;27;45371;-73
2022/06/03 00:05:26;;;;;;;;;6.00;6.00;;;;;;;;5075394;28;45370;-73
2022/06/03 00:07:52;;;;;;;;;4.67;3.67;;;;;;;;5083386;27;45535;-73
2022/06/03 00:10:26;;;;;;;;;3.00;3.00;;;;;;;;5076720;27;45471;-73
2022/06/03 00:13:09;;;;;;;;;5.67;5.00;;;;;;;;5077831;28;45427;-73
2022/06/03 00:15:46;;;;;;;;;3.67;3.00;;;;;;;;5055375;28;45367;-73
2022/06/03 00:18:30;;;;;;;;;5.33;4.67;;;;;;;;5079673;27;45280;-73
2022/06/03 00:21:02;;;;;;;;;3.67;3.00;;;;;;;;5072618;27;46355;-73
2022/06/03 00:23:46;;;;;;;;;3.67;3.67;;;;;;;;5086421;27;45260;-73
2022/06/03 00:26:23;;;;;;;;;5.00;4.00;;;;;;;;5077854;27;45498;-73
2022/06/03 00:29:07;;;;;;;;;3.00;3.00;;;;;;;;5079777;28;45319;-73
2022/06/03 00:31:47;;;;;;;;;3.33;3.00;;;;;;;;5057702;28;48136;-73
2022/06/03 00:34:18;;;;;;;;;4.33;4.00;;;;;;;;5079709;27;45288;-73
2022/06/03 00:36:55;;;;;;;;;3.00;3.00;;;;;;;;5076810;27;45328;-73
2022/06/03 00:39:38;;;;;;;;;4.33;4.33;;;;;;;;5081065;27;45340;-73
2022/06/03 00:42:17;;;;;;;;;4.00;4.00;;;;;;;;5074137;27;45719;-73
2022/06/03 00:44:42;;;;;;;;;4.33;3.00;;;;;;;;5077793;28;45427;-73
2022/06/03 00:47:19;;;;;;;;;3.00;3.00;;;;;;;;5056741;27;45252;-73
2022/06/03 00:49:59;;;;;;;;;4.00;3.00;;;;;;;;5059238;28;45953;-73
2022/06/03 00:52:43;;;;;;;;;4.00;4.00;;;;;;;;5076717;27;45458;-73
2022/06/03 00:55:12;;;;;;;;;4.00;4.00;;;;;;;;5058094;28;45672;-74
2022/06/03 00:57:56;;;;;;;;;3.00;3.00;;;;;;;;5087663;27;45229;-74
2022/06/03 01:00:28;;;;;;;;;4.33;4.33;;;;;;;;5055329;28;47417;-72
2022/06/03 01:03:12;;;;;;;;;4.00;4.00;;;;;;;;5060240;28;46542;-73
2022/06/03 01:05:40;;;;;;;;;5.33;5.33;;;;;;;;5072209;28;45395;-73
2022/06/03 01:08:15;;;;;;;;;3.00;3.00;;;;;;;;5079135;28;45463;-73
2022/06/03 01:10:43;;;;;;;;;3.00;3.00;;;;;;;;5054106;28;45395;-73
2022/06/03 01:13:22;;;;;;;;;4.00;4.00;;;;;;;;5078614;28;45863;-73
2022/06/03 01:15:50;;;;;;;;;3.33;3.00;;;;;;;;5072480;28;45446;-73
2022/06/03 01:18:34;;;;;;;;;4.00;4.00;;;;;;;;5078566;27;45292;-72
2022/06/03 01:21:18;;;;;;;;;5.00;3.67;;;;;;;;5052443;28;46391;-73
2022/06/03 01:24:07;;;;;;;;;5.00;3.33;;;;;;;;5060805;28;47944;-73
2022/06/03 01:26:45;;;;;;;;;3.67;3.67;;;;;;;;5062483;27;45411;-73
2022/06/03 01:29:32;;;;;;;;;4.00;3.00;;;;;;;;5079244;28;45473;-73
2022/06/03 01:32:10;;;;;;;;;4.67;4.67;;;;;;;;5074142;27;45270;-73
2022/06/03 01:34:45;;;;;;;;;3.00;3.00;;;;;;;;5076707;28;46516;-73
2022/06/03 01:37:17;;;;;;;;;3.67;3.67;;;;;;;;5056281;28;45304;-73
2022/06/03 01:39:51;;;;;;;;;3.00;3.00;;;;;;;;5076965;28;45428;-73
2022/06/03 01:42:44;;;;;;;;;4.33;4.00;;;;;;;;5087363;27;45688;-73
2022/06/03 01:45:28;;;;;;;;;5.00;4.00;;;;;;;;5082640;27;46134;-73
2022/06/03 01:48:02;;;;;;;;;4.00;3.00;;;;;;;;5056517;28;45331;-73
2022/06/03 01:50:46;;;;;;;;;3.00;2.00;;;;;;;;5063592;28;45272;-73
2022/06/03 01:53:24;;;;;;;;;5.67;2.00;;;;;;;;5076452;27;45293;-74
2022/06/03 01:56:14;;;;;;;;;3.00;3.00;;;;;;;;5086547;27;45212;-73
2022/06/03 01:58:58;;;;;;;;;3.33;3.33;;;;;;;;5036843;27;45512;-73
2022/06/03 02:01:32;;;;;;;;;4.00;4.00;;;;;;;;5076895;27;45486;-73
2022/06/03 02:04:05;;;;;;;;;1.67;1.67;;;;;;;;5052034;28;47221;-73
2022/06/03 02:06:49;;;;;;;;;3.67;3.00;;;;;;;;5082996;27;45669;-73
2022/06/03 02:09:34;;;;;;;;;4.00;4.00;;;;;;;;5081911;27;45267;-73
2022/06/03 02:12:02;;;;;;;;;4.00;4.00;;;;;;;;5061086;28;45344;-72
2022/06/03 02:14:39;;;;;;;;;2.00;2.00;;;;;;;;5080687;27;45347;-72
2022/06/03 02:17:08;;;;;;;;;4.00;4.00;;;;;;;;5075772;27;46401;-71
2022/06/03 02:19:36;;;;;;;;;5.00;5.00;;;;;;;;5079954;27;45319;-71
2022/06/03 02:22:21;;;;;;;;;3.33;3.00;;;;;;;;5057996;28;45430;-71
2022/06/03 02:24:59;;;;;;;;;4.00;3.00;;;;;;;;5079561;27;45912;-73
2022/06/03 02:27:27;;;;;;;;;5.00;5.00;;;;;;;;5078337;27;45510;-73
2022/06/03 02:32:54;;;;;;;;;4.00;4.00;;;;;;;;5081679;27;45336;-72
2022/06/03 02:35:38;;;;;;;;;5.33;4.00;;;;;;;;5078999;27;45666;-73
2022/06/03 02:38:22;;;;;;;;;4.00;4.00;;;;;;;;5074760;27;46685;-73
2022/06/03 02:41:00;;;;;;;;;4.00;4.00;;;;;;;;5058934;28;45491;-73
2022/06/03 02:43:28;;;;;;;;;4.00;4.00;;;;;;;;5080966;27;45288;-72
2022/06/03 02:46:11;;;;;;;;;5.33;4.00;;;;;;;;5056860;28;47011;-71
2022/06/03 02:48:40;;;;;;;;;4.67;4.67;;;;;;;;5074789;27;47559;-71
2022/06/03 02:51:17;;;;;;;;;4.67;4.67;;;;;;;;5056213;28;45340;-71
2022/06/03 02:54:01;;;;;;;;;6.00;4.00;;;;;;;;5078827;27;45432;-72
2022/06/03 02:56:35;;;;;;;;;5.67;4.67;;;;;;;;5078886;27;45370;-71
2022/06/03 02:59:09;;;;;;;;;3.67;3.67;;;;;;;;5086148;27;45446;-72
2022/06/03 03:01:34;;;;;;;;;3.67;3.67;;;;;;;;5073740;27;45414;-72
2022/06/03 03:04:04;;;;;;;;;4.00;4.00;;;;;;;;5063133;28;45693;-72
2022/06/03 03:06:29;;;;;;;;;3.00;3.00;;;;;;;;5057428;28;47246;-72
2022/06/03 03:09:07;;;;;;;;;3.50;3.00;;;;;;;;5081378;27;46292;-72
2022/06/03 03:11:45;;;;;;;;;4.00;4.00;;;;;;;;5075288;27;45175;-71
2022/06/03 03:14:29;;;;;;;;;4.00;4.00;;;;;;;;5081240;27;45473;-71
2022/06/03 03:17:13;;;;;;;;;6.00;4.67;;;;;;;;5051592;28;46649;-71
2022/06/03 03:19:56;;;;;;;;;6.00;4.33;;;;;;;;5075374;27;46286;-72
2022/06/03 03:22:40;;;;;;;;;4.00;4.00;;;;;;;;5076953;28;45234;-72
2022/06/03 03:25:24;;;;;;;;;4.67;4.67;;;;;;;;5078879;27;45378;-71
2022/06/03 03:27:49;;;;;;;;;4.33;3.00;;;;;;;;5059967;28;47528;-72
2022/06/03 03:30:15;;;;;;;;;4.75;3.75;;;;;;;;5078453;27;46211;-72
2022/06/03 03:33:04;;;;;;;;;5.00;5.00;;;;;;;;5084724;27;45288;-71
2022/06/03 03:35:54;;;;;;;;;5.00;4.00;;;;;;;;5077647;27;45385;-71
2022/06/03 03:38:38;;;;;;;;;4.67;4.67;;;;;;;;5080766;28;45290;-71
2022/06/03 03:41:19;;;;;;;;;5.00;4.00;;;;;;;;5076330;27;45438;-72
2022/06/03 03:43:44;;;;;;;;;5.00;4.00;;;;;;;;5059832;27;45690;-73
2022/06/03 03:46:28;;;;;;;;;5.33;5.33;;;;;;;;5076260;27;45379;-73
2022/06/03 03:48:53;;;;;;;;;5.00;5.00;;;;;;;;5077577;27;45447;-73
2022/06/03 03:51:26;;;;;;;;;4.00;4.00;;;;;;;;5076726;27;45585;-73
2022/06/03 03:54:06;;;;;;;;;4.67;4.00;;;;;;;;5091242;27;45469;-73
2022/06/03 03:56:44;;;;;;;;;5.00;4.00;;;;;;;;5085241;27;45483;-72
2022/06/03 03:59:28;;;;;;;;;4.33;3.67;;;;;;;;5085974;27;45272;-72
2022/06/03 04:01:56;;;;;;;;;4.00;4.00;;;;;;;;5072874;27;45423;-73
2022/06/03 04:04:24;;;;;;;;;4.00;4.00;;;;;;;;5083832;27;45379;-73
2022/06/03 04:07:07;;;;;;;;;5.00;4.00;;;;;;;;5073994;27;45225;-73
2022/06/03 04:09:54;;;;;;;;;6.00;5.00;;;;;;;;5079163;27;45329;-73
2022/06/03 04:12:45;;;;;;;;;5.33;5.00;;;;;;;;5075874;27;45261;-72
2022/06/03 04:15:43;;;;;;;;;6.67;6.67;;;;;;;;5018582;28;48486;-72
2022/06/03 04:18:11;;;;;;;;;8.33;6.00;;;;;;;;5033527;27;45424;-72
2022/06/03 04:20:39;;;;;;;;;5.67;5.67;;;;;;;;5073035;27;45661;-72
2022/06/03 04:23:19;;;;;;;;;7.00;5.33;;;;;;;;5079695;28;45339;-72
2022/06/03 04:25:56;;;;;;;;;6.33;6.00;;;;;;;;5071206;27;45360;-72
2022/06/03 04:28:31;;;;;;;;;8.33;7.00;;;;;;;;5079891;28;45678;-72
2022/06/03 04:31:14;;;;;;;;;6.00;6.00;;;;;;;;5075795;27;45702;-73
2022/06/03 04:33:49;;;;;;;;;6.00;6.00;;;;;;;;5068185;27;47208;-71
2022/06/03 04:36:14;;;;;;;;;5.33;5.33;;;;;;;;5073804;28;45581;-71
2022/06/03 04:38:59;;;;;;;;;8.00;8.00;;;;;;;;5079815;28;45272;-72
2022/06/03 04:41:57;;;;;;;;;7.67;6.67;;;;;;;;5070912;27;45448;-72
2022/06/03 04:44:31;;;;;;;;;5.33;5.33;;;;;;;;5077775;27;45361;-71
2022/06/03 04:47:15;;;;;;;;;10.00;7.00;;;;;;;;5076702;28;45508;-72
2022/06/03 04:49:49;;;;;;;;;8.33;8.33;;;;;;;;5049959;28;45312;-72
2022/06/03 04:52:15;;;;;;;;;8.00;7.00;;;;;;;;5078339;27;45728;-71
2022/06/03 04:54:55;;;;;;;;;6.33;6.00;;;;;;;;5077186;27;45523;-70
2022/06/03 04:57:39;;;;;;;;;8.00;7.00;;;;;;;;5075615;27;45506;-71
2022/06/03 05:00:04;;;;;;;;;6.00;6.00;;;;;;;;5075192;27;45470;-72
2022/06/03 05:02:29;;;;;;;;;6.00;6.00;;;;;;;;5068831;27;45402;-72
2022/06/03 05:05:13;;;;;;;;;7.00;6.33;;;;;;;;5079036;27;46537;-73
2022/06/03 05:07:56;;;;;;;;;5.67;5.00;;;;;;;;5072413;27;45470;-72
2022/06/03 05:10:40;;;;;;;;;7.00;7.00;;;;;;;;5057843;28;47075;-73
2022/06/03 05:13:26;;;;;;;;;4.67;4.67;;;;;;;;5059728;28;46258;-73
2022/06/03 05:16:10;;;;;;;;;5.67;5.33;;;;;;;;5047844;28;47291;-73
2022/06/03 05:18:44;;;;;;;;;5.00;4.67;;;;;;;;5075971;27;45285;-73
2022/06/03 05:21:19;;;;;;;;;4.33;4.33;;;;;;;;5075829;28;45194;-73
2022/06/03 05:24:03;;;;;;;;;5.67;4.67;;;;;;;;5060924;27;46050;-73
2022/06/03 05:26:43;;;;;;;;;5.00;5.00;;;;;;;;5056744;28;46155;-73
2022/06/03 05:29:17;;;;;;;;;7.00;5.67;;;;;;;;5059477;28;45288;-73
2022/06/03 05:31:58;;;;;;;;;5.00;5.00;;;;;;;;5074168;28;45406;-73
2022/06/03 05:34:26;;;;;;;;;6.33;6.00;;;;;;;;5078023;27;45355;-74
2022/06/03 05:37:00;;;;;;;;;7.33;6.00;;;;;;;;5070511;27;46245;-73
2022/06/03 05:39:33;;;;;;;;;7.33;5.00;;;;;;;;5065878;27;45316;-73
2022/06/03 05:45:07;;;;;;;;;4.67;4.67;;;;;;;;5068606;27;45462;-73
2022/06/03 05:47:40;;;;;;;;;6.00;6.00;;;;;;;;5075226;28;45333;-75
2022/06/03 05:50:19;;;;;;;;;8.67;6.33;;;;;;;;5075289;28;45383;-73
2022/06/03 05:53:02;;;;;;;;;9.00;6.00;;;;;;;;5078238;27;45390;-73
2022/06/03 05:55:28;;;;;;;;;8.00;6.00;;;;;;;;5075897;28;45391;-73
2022/06/03 05:57:53;;;;;;;;;6.00;6.00;;;;;;;;5060069;28;47184;-72
2022/06/03 06:00:37;;;;;;;;;5.00;5.00;;;;;;;;5076113;28;45386;-72
2022/06/03 06:03:02;;;;;;;;;4.00;3.00;;;;;;;;5076871;27;45515;-73
2022/06/03 06:05:34;;;;;;;;;5.33;5.33;;;;;;;;5079563;27;45506;-72
2022/06/03 06:08:18;;;;;;;;;5.33;4.67;;;;;;;;5059950;28;47434;-73
2022/06/03 06:10:58;;;;;;;;;7.00;5.33;;;;;;;;5074338;28;45296;-73
2022/06/03 06:13:38;;;;;;;;;7.00;7.00;;;;;;;;5060140;28;44851;-71
2022/06/03 06:16:09;;;;;;;;;6.00;6.00;;;;;;;;5071189;27;45672;-72
2022/06/03 06:18:53;;;;;;;;;8.33;8.33;;;;;;;;5065457;27;47218;-73
2022/06/03 06:21:31;;;;;;;;;5.67;5.33;;;;;;;;5091349;27;45383;-72
2022/06/03 06:24:10;;;;;;;;;10.33;8.00;;;;;;;;5096014;27;45378;-72
2022/06/03 06:26:41;;;;;;;;;7.33;5.00;;;;;;;;5082720;27;45589;-73
2022/06/03 06:29:28;;;;;;;;;7.33;7.33;;;;;;;;5063501;27;47857;-73
2022/06/03 06:32:09;;;;;;;;;9.67;6.00;;;;;;;;5065078;27;45551;-72
2022/06/03 06:34:53;;;;;;;;;7.67;7.67;;;;;;;;5073702;28;45572;-72
2022/06/03 06:37:36;;;;;;;;;6.33;6.33;;;;;;;;5073771;28;45602;-72
2022/06/03 06:40:20;;;;;;;;;9.00;6.00;;;;;;;;5074177;28;46452;-73
2022/06/03 06:42:51;;;;;;;;;8.00;7.67;;;;;;;;5079542;27;45985;-73
2022/06/03 06:45:19;;;;;;;;;7.00;7.00;;;;;;;;5087194;27;45475;-72
2022/06/03 06:47:46;;;;;;;;;7.33;7.33;;;;;;;;5089625;27;45566;-72
2022/06/03 06:50:32;;;;;;;;;8.67;7.67;;;;;;;;5063765;27;47630;-72
2022/06/03 06:53:10;;;;;;;;;9.00;8.00;;;;;;;;5059654;27;45398;-72
2022/06/03 06:55:46;;;;;;;;;9.67;9.67;;;;;;;;5079972;27;46069;-71
2022/06/03 06:58:30;;;;;;;;;6.67;5.67;;;;;;;;5086310;27;45528;-71
2022/06/03 07:00:57;;;;;;;;;9.00;9.00;;;;;;;;5086119;27;45557;-71
2022/06/03 07:03:41;;;;;;;;;8.67;8.00;;;;;;;;5091517;27;45426;-71
2022/06/03 07:06:12;;;;;;;;;11.67;8.67;;;;;;;;5079850;27;46063;-72
2022/06/03 07:08:44;;;;;;;;;10.00;7.00;;;;;;;;5094454;27;45588;-71
2022/06/03 07:11:18;;;;;;;;;7.33;6.67;;;;;;;;5089657;27;45498;-72
2022/06/03 07:13:46;;;;;;;;;5.67;5.67;;;;;;;;5092779;27;45237;-71
2022/06/03 07:22:13;;;;;;;;;10.67;10.33;;;;;;;;5094208;27;45850;-71
2022/06/03 07:24:46;;;;;;;;;7.67;6.33;;;;;;;;5088596;27;45619;-71
2022/06/03 07:27:26;;;;;;;;;7.33;6.67;;;;;;;;5093820;27;45454;-70
2022/06/03 07:29:59;;;;;;;;;9.00;6.00;;;;;;;;5094784;27;45539;-70
2022/06/03 07:32:27;;;;;;;;;6.67;6.67;;;;;;;;5094925;27;45321;-70
2022/06/03 07:34:59;;;;;;;;;9.00;6.33;;;;;;;;5093620;27;45464;-70
2022/06/03 07:37:28;;;;;;;;;6.00;6.00;;;;;;;;5096549;27;45445;-70
2022/06/03 07:40:09;;;;;;;;;7.00;7.00;;;;;;;;5090046;27;45436;-71
2022/06/03 07:42:40;;;;;;;;;9.33;8.00;;;;;;;;5091830;27;45295;-71
2022/06/03 07:45:15;;;;;;;;;8.33;8.33;;;;;;;;5071856;27;45454;-71
2022/06/03 07:47:41;;;;;;;;;9.67;7.00;;;;;;;;5087012;27;45340;-75
2022/06/03 07:50:12;;;;;;;;;5.00;5.00;;;;;;;;5091723;27;45973;-76
2022/06/03 07:52:41;;;;;;;;;6.33;6.33;;;;;;;;5091074;27;46038;-74
2022/06/03 07:55:16;;;;;;;;;8.33;6.67;;;;;;;;5090795;27;45460;-72
2022/06/03 07:57:49;;;;;;;;;6.00;6.00;;;;;;;;5094308;27;45416;-70
2022/06/03 08:00:16;;;;;;;;;7.67;5.67;;;;;;;;5093880;27;45319;-71
2022/06/03 08:02:41;;;;;;;;;9.33;8.67;;;;;;;;5095250;27;46175;-71
2022/06/03 08:05:12;;;;;;;;;8.00;7.67;;;;;;;;5090872;27;45413;-70
2022/06/03 08:13:11;;;;;;;;;6.00;6.00;;;;;;;;5091885;27;45266;-71
2022/06/03 08:15:38;;;;;;;;;6.33;6.33;;;;;;;;5089409;27;45287;-71
2022/06/03 08:18:05;;;;;;;;;8.00;8.00;;;;;;;;5091965;27;45351;-71
2022/06/03 08:20:33;;;;;;;;;8.00;8.00;;;;;;;;5088717;27;45368;-71
2022/06/03 08:22:58;;;;;;;;;10.00;7.33;;;;;;;;5092463;27;45440;-71
2022/06/03 08:25:27;;;;;;;;;8.33;8.33;;;;;;;;5085872;27;45575;-71
2022/06/03 08:27:54;;;;;;;;;8.33;7.00;;;;;;;;5086540;27;45580;-71
2022/06/03 08:30:22;;;;;;;;;8.00;8.00;;;;;;;;5081407;27;45555;-71
2022/06/03 08:32:50;;;;;;;;;7.00;6.67;;;;;;;;5086111;27;45399;-70
2022/06/03 08:35:19;;;;;;;;;12.67;9.33;;;;;;;;5068550;27;45383;-70
2022/06/03 08:37:49;;;;;;;;;9.33;8.00;;;;;;;;5089596;27;45611;-70
2022/06/03 08:40:34;;;;;;;;;8.00;8.00;;;;;;;;5070791;27;46594;-70
2022/06/03 08:42:59;;;;;;;;;11.67;8.67;;;;;;;;5083722;27;47996;-70
2022/06/03 08:45:34;;;;;;;;;8.67;7.33;;;;;;;;5067573;27;46201;-70
2022/06/03 08:48:01;;;;;;;;;10.67;7.33;;;;;;;;5057670;28;45526;-70
2022/06/03 08:50:28;;;;;;;;;12.00;11.00;;;;;;;;5076513;28;45514;-70
2022/06/03 08:52:54;;;;;;;;;11.67;8.67;;;;;;;;5060295;27;48075;-70
2022/06/03 08:55:19;;;;;;;;;8.00;8.00;;;;;;;;5076650;28;45528;-70
2022/06/03 08:57:47;;;;;;;;;12.00;10.00;;;;;;;;5078976;27;45292;-70
2022/06/03 09:00:14;;;;;;;;;8.67;7.33;;;;;;;;5075901;28;45330;-70
2022/06/03 09:02:48;;;;;;;;;14.67;11.00;;;;;;;;5071476;27;45393;-70
2022/06/03 09:05:35;;;;;;;;;12.00;10.00;;;;;;;;5070882;27;45327;-70
2022/06/03 09:08:24;;;;;;;;;8.33;8.33;;;;;;;;5072293;27;45737;-70
2022/06/03 09:10:55;;;;;;;;;10.33;8.00;;;;;;;;5062823;28;45714;-72
2022/06/03 09:13:40;;;;;;;;;13.67;9.33;;;;;;;;5075677;28;46240;-70
2022/06/03 09:16:08;;;;;;;;;12.00;9.00;;;;;;;;5077043;27;45241;-72
2022/06/03 09:18:40;;;;;;;;;8.00;7.00;;;;;;;;5078281;27;45600;-72
2022/06/03 09:21:18;;;;;;;;;7.33;7.00;;;;;;;;5068578;28;45806;-70
2022/06/03 09:23:48;;;;;;;;;9.67;9.67;;;;;;;;5077766;27;45390;-70
2022/06/03 09:26:22;;;;;;;;;9.67;9.67;;;;;;;;5068789;28;45735;-70
2022/06/03 09:28:47;;;;;;;;;9.33;8.00;;;;;;;;5085644;27;45360;-70
2022/06/03 09:31:13;;;;;;;;;11.00;11.00;;;;;;;;5062536;27;46047;-70
2022/06/03 09:33:40;;;;;;;;;11.33;10.33;;;;;;;;5074452;27;48265;-71
2022/06/03 09:36:13;;;;;;;;;10.75;10.00;;;;;;;;5072522;27;45470;-72
2022/06/03 09:38:49;;;;;;;;;11.33;10.00;;;;;;;;5077106;27;45352;-72
2022/06/03 09:41:15;;;;;;;;;15.00;10.33;;;;;;;;5070297;28;45666;-72
2022/06/03 09:43:43;;;;;;;;;11.00;9.67;;;;;;;;5080317;27;45450;-72
2022/06/03 09:46:11;;;;;;;;;10.00;10.00;;;;;;;;5077441;27;45509;-72
2022/06/03 09:48:37;;;;;;;;;10.00;9.00;;;;;;;;5074939;27;46096;-72
2022/06/03 09:51:09;;;;;;;;;8.75;8.75;;;;;;;;5072759;27;45424;-72
2022/06/03 09:53:40;;;;;;;;;10.00;8.75;;;;;;;;5078530;27;45807;-72
2022/06/03 09:56:09;;;;;;;;;9.75;8.75;;;;;;;;5074885;27;45308;-73
2022/06/03 09:58:35;;;;;;;;;10.00;10.00;;;;;;;;5088142;27;45366;-72
2022/06/03 10:01:02;;;;;;;;;11.00;10.00;;;;;;;;5075396;27;45446;-73
2022/06/03 10:03:27;;;;;;;;;10.75;10.00;;;;;;;;5078729;27;45363;-73
2022/06/03 10:05:58;;;;;;;;;7.50;7.50;;;;;;;;5068575;27;45475;-73
2022/06/03 10:08:25;;;;;;;;;10.50;9.50;;;;;;;;5072798;27;45467;-72
2022/06/03 10:13:39;;;;;;;;;9.25;9.00;;;;;;;;5088395;27;45741;-71
2022/06/03 10:16:07;;;;;;;;;12.75;10.50;;;;;;;;5074255;27;45219;-72
2022/06/03 10:18:39;;;;;;;;;14.25;11.50;;;;;;;;5081325;27;45360;-71
2022/06/03 10:21:07;;;;;;;;;15.25;11.00;;;;;;;;5074062;27;45589;-72
2022/06/03 10:23:36;;;;;;;;;16.75;13.75;;;;;;;;5083984;27;45399;-71
2022/06/03 10:26:02;;;;;;;;;13.00;11.00;;;;;;;;5084975;27;45518;-72
2022/06/03 10:28:39;;;;;;;;;11.75;11.25;;;;;;;;5086054;27;45632;-71
2022/06/03 10:31:13;;;;;;;;;13.75;12.50;;;;;;;;5059554;28;46039;-72
2022/06/03 10:33:39;;;;;;;;;13.25;13.00;;;;;;;;5088400;27;45374;-72
2022/06/03 10:36:04;;;;;;;;;13.00;9.75;;;;;;;;5089361;27;45400;-72
2022/06/03 10:38:31;;;;;;;;;15.00;11.50;;;;;;;;5085131;27;45323;-72
2022/06/03 10:40:57;;;;;;;;;13.75;13.75;;;;;;;;5076135;27;45400;-72
2022/06/03 10:43:22;;;;;;;;;12.25;12.25;;;;;;;;5062731;28;46808;-70
2022/06/03 10:45:47;;;;;;;;;17.25;15.75;;;;;;;;5077508;27;45339;-72
2022/06/03 10:48:19;;;;;;;;;15.25;13.75;;;;;;;;5080917;27;45228;-72
2022/06/03 10:50:44;;;;;;;;;13.00;11.75;;;;;;;;5055838;28;45535;-72
2022/06/03 11:01:26;;;;;;;;;13.75;13.75;;;;;;;;5091052;27;45248;-72
2022/06/03 11:03:52;;;;;;;;;16.25;15.25;;;;;;;;5090081;27;45366;-72
2022/06/03 11:06:22;;;;;;;;;15.75;13.50;;;;;;;;5085634;27;45320;-72
2022/06/03 11:08:52;;;;;;;;;14.00;14.00;;;;;;;;5092160;27;45684;-71
2022/06/03 11:11:37;;;;;;;;;15.50;13.00;;;;;;;;5088035;27;45369;-72
2022/06/03 11:14:22;;;;;;;;;13.50;13.50;;;;;;;;5078737;28;45311;-72
2022/06/03 11:16:53;;;;;;;;;13.25;12.50;;;;;;;;5074454;27;45425;-72
2022/06/03 11:19:19;;;;;;;;;16.25;16.25;;;;;;;;5080679;27;45300;-72
2022/06/03 11:21:45;;;;;;;;;14.75;12.50;;;;;;;;5055595;27;46996;-72
2022/06/03 11:24:10;;;;;;;;;13.50;13.50;;;;;;;;5079870;27;45427;-72
2022/06/03 11:26:38;;;;;;;;;15.00;15.00;;;;;;;;5059481;27;45711;-72
2022/06/03 11:29:23;;;;;;;;;21.75;18.25;;;;;;;;5058082;28;45428;-72
2022/06/03 11:31:49;;;;;;;;;13.50;13.50;;;;;;;;5077186;27;45371;-72
2022/06/03 11:34:36;;;;;;;;;17.00;14.75;;;;;;;;5080158;28;46172;-72
2022/06/03 11:37:04;;;;;;;;;14.00;12.25;;;;;;;;5086713;27;45370;-72
2022/06/03 11:39:29;;;;;;;;;16.00;13.25;;;;;;;;5080264;27;45211;-72
2022/06/03 11:42:01;;;;;;;;;13.75;12.25;;;;;;;;5077651;27;45470;-72
2022/06/03 11:44:35;;;;;;;;;10.75;10.75;;;;;;;;5079994;27;45448;-72
2022/06/03 11:47:04;;;;;;;;;12.50;11.00;;;;;;;;5074417;28;45473;-72
2022/06/03 11:49:30;;;;;;;;;12.50;12.50;;;;;;;;5079600;27;45391;-72
2022/06/03 11:51:55;;;;;;;;;14.50;13.00;;;;;;;;5075431;27;45928;-72
2022/06/03 11:54:23;;;;;;;;;10.50;10.50;;;;;;;;5095780;27;46723;-72
2022/06/03 11:56:49;;;;;;;;;10.00;9.25;;;;;;;;5082558;27;45334;-72
2022/06/03 11:59:14;;;;;;;;;14.00;12.75;;;;;;;;5080518;28;45362;-72
2022/06/03 12:01:50;;;;;;;;;10.25;10.25;;;;;;;;5081075;27;45337;-72
2022/06/03 12:04:18;;;;;;;;;12.00;11.00;;;;;;;;5071448;27;46182;-72
2022/06/03 12:06:49;;;;;;;;;11.25;11.25;;;;;;;;5075423;27;45462;-73
2022/06/03 12:09:26;;;;;;;;;12.00;9.50;;;;;;;;5061548;28;45462;-72
2022/06/03 12:14:55;;;;;;;;;16.25;15.75;;;;;;;;5075789;28;45765;-72
2022/06/03 12:17:27;;;;;;;;;9.00;9.00;;;;;;;;5075852;28;45440;-71
2022/06/03 12:19:54;;;;;;;;;9.00;8.50;;;;;;;;5077496;27;45225;-72
2022/06/03 12:22:32;;;;;;;;;11.25;10.00;;;;;;;;5075115;27;45364;-72
2022/06/03 12:24:58;;;;;;;;;7.75;7.75;;;;;;;;5077578;28;45547;-72
2022/06/03 12:27:26;;;;;;;;;42.33;32.67;;;;;;;;5082353;27;45327;-72
2022/06/03 12:30:01;;;;;;;;;9.00;9.00;;;;;;;;5065876;27;45548;-72
2022/06/03 12:32:28;;;;;;;;;8.00;8.00;;;;;;;;5075283;27;45301;-73
2022/06/03 12:35:13;;;;;;;;;11.00;10.75;;;;;;;;5076933;28;45504;-72
2022/06/03 12:37:38;;;;;;;;;9.75;8.75;;;;;;;;5058577;28;45244;-72
2022/06/03 12:40:19;;;;;;;;;7.25;7.25;;;;;;;;5077091;27;45613;-72
2022/06/03 12:42:45;;;;;;;;;10.00;8.50;;;;;;;;5073311;27;45559;-72
2022/06/03 12:45:13;;;;;;;;;7.00;7.00;;;;;;;;5056202;28;47995;-72
2022/06/03 12:47:43;;;;;;;;;7.00;6.25;;;;;;;;5061053;28;45364;-71
2022/06/03 12:50:28;;;;;;;;;7.00;6.25;;;;;;;;5081214;27;45513;-71
2022/06/03 12:53:02;;;;;;;;;9.50;8.25;;;;;;;;5073517;28;45684;-72
2022/06/03 12:55:30;;;;;;;;;9.00;8.00;;;;;;;;5076520;27;45911;-72
2022/06/03 12:58:00;;;;;;;;;7.00;7.00;;;;;;;;5057681;28;45467;-72
2022/06/03 13:00:36;;;;;;;;;7.33;7.33;;;;;;;;5078605;27;45777;-72
2022/06/03 13:03:02;;;;;;;;;8.75;8.75;;;;;;;;5073191;28;45376;-72
2022/06/03 13:05:44;;;;;;;;;7.00;6.00;;;;;;;;5077017;27;45238;-72
2022/06/03 13:08:32;;;;;;;;;9.00;9.00;;;;;;;;5075408;28;45446;-73
2022/06/03 13:10:57;;;;;;;;;9.00;8.67;;;;;;;;5069308;28;45462;-73
2022/06/03 13:13:24;;;;;;;;;13.00;8.67;;;;;;;;5060070;28;46176;-72
2022/06/03 13:15:50;;;;;;;;;14.33;11.33;;;;;;;;5075447;27;45925;-72
2022/06/03 13:18:42;;;;;;;;;10.67;10.00;;;;;;;;5078368;28;45419;-72
2022/06/03 13:21:07;;;;;;;;;12.67;11.00;;;;;;;;5067336;27;45472;-73
2022/06/03 13:23:34;;;;;;;;;10.67;10.67;;;;;;;;5087295;27;45585;-72
2022/06/03 13:26:18;;;;;;;;;11.67;9.67;;;;;;;;5089069;27;46410;-72
2022/06/03 13:28:44;;;;;;;;;9.67;9.67;;;;;;;;5081647;27;45256;-73
2022/06/03 13:31:16;;;;;;;;;10.00;10.00;;;;;;;;5075523;27;46275;-73
2022/06/03 13:33:59;;;;;;;;;9.00;9.00;;;;;;;;5078540;28;45506;-73
2022/06/03 13:36:48;;;;;;;;;11.00;9.67;;;;;;;;5073707;28;46302;-73
2022/06/03 13:39:33;;;;;;;;;10.67;9.67;;;;;;;;5049537;28;45602;-73
2022/06/03 13:44:53;;;;;;;;;10.00;10.00;;;;;;;;5076526;28;45402;-73
2022/06/03 13:47:33;;;;;;;;;10.33;10.33;;;;;;;;5076217;28;46656;-73
2022/06/03 13:50:13;;;;;;;;;11.67;10.00;;;;;;;;5077861;28;45301;-73
2022/06/03 13:52:59;;;;;;;;;9.67;6.67;;;;;;;;5079460;27;45328;-73
2022/06/03 13:55:41;;;;;;;;;10.00;7.33;;;;;;;;5079145;27;45405;-73
2022/06/03 13:58:22;;;;;;;;;12.00;10.00;;;;;;;;5057016;28;47687;-73
2022/06/03 14:00:51;;;;;;;;;13.67;12.33;;;;;;;;5060307;28;46060;-73
2022/06/03 14:03:20;;;;;;;;;15.33;11.67;;;;;;;;5058257;28;45434;-73
2022/06/03 14:05:58;;;;;;;;;13.00;11.00;;;;;;;;5087163;27;45309;-73
2022/06/03 14:08:28;;;;;;;;;11.00;11.00;;;;;;;;5083602;27;45525;-74
2022/06/03 14:11:05;;;;;;;;;13.00;13.00;;;;;;;;5077658;27;45261;-74
2022/06/03 14:13:46;;;;;;;;;15.33;14.00;;;;;;;;5077208;27;45332;-74
2022/06/03 14:16:14;;;;;;;;;13.00;11.33;;;;;;;;5075954;27;48045;-74
2022/06/03 14:18:46;;;;;;;;;12.67;11.67;;;;;;;;5082970;27;45253;-74
2022/06/03 14:21:14;;;;;;;;;11.00;11.00;;;;;;;;5081712;27;45410;-74
2022/06/03 14:23:41;;;;;;;;;16.33;12.00;;;;;;;;5081779;27;45252;-73
2022/06/03 14:26:11;;;;;;;;;13.67;12.00;;;;;;;;5077378;27;45548;-74
2022/06/03 14:28:53;;;;;;;;;12.00;12.00;;;;;;;;5082993;27;45350;-73
2022/06/03 14:31:21;;;;;;;;;12.67;12.67;;;;;;;;5076069;27;45431;-73
2022/06/03 14:33:53;;;;;;;;;16.33;14.00;;;;;;;;5078046;27;45612;-73
2022/06/03 14:36:19;;;;;;;;;9.00;7.33;;;;;;;;5076001;27;45245;-74
2022/06/03 14:38:47;;;;;;;;;12.00;11.33;;;;;;;;5059953;28;47749;-73
2022/06/03 14:41:14;;;;;;;;;12.00;11.00;;;;;;;;5058782;28;45407;-73
2022/06/03 14:43:40;;;;;;;;;14.33;11.00;;;;;;;;5081456;27;45398;-73
2022/06/03 14:46:18;;;;;;;;;9.67;9.67;;;;;;;;5059301;27;46767;-73
2022/06/03 14:48:46;;;;;;;;;13.67;12.33;;;;;;;;5081057;27;45359;-73
2022/06/03 14:51:19;;;;;;;;;13.00;12.00;;;;;;;;5060678;27;46144;-73
2022/06/03 14:53:52;;;;;;;;;13.67;13.67;;;;;;;;5088760;27;45655;-73
2022/06/03 14:56:27;;;;;;;;;14.67;13.00;;;;;;;;5073109;27;46950;-74
2022/06/03 14:58:54;;;;;;;;;12.33;12.33;;;;;;;;5062951;28;47170;-74
2022/06/03 15:01:27;;;;;;;;;12.67;12.33;;;;;;;;5068911;28;45359;-74
2022/06/03 15:04:04;;;;;;;;;12.00;10.67;;;;;;;;5079404;28;45448;-74
2022/06/03 15:06:32;;;;;;;;;8.67;7.33;;;;;;;;5072686;27;45373;-74
2022/06/03 15:09:10;;;;;;;;;11.00;11.00;;;;;;;;5081015;27;45408;-74
2022/06/03 15:11:38;;;;;;;;;9.00;8.00;;;;;;;;5073684;27;45627;-74
2022/06/03 15:14:07;;;;;;;;;8.00;7.67;;;;;;;;5085421;27;45300;-74
2022/06/03 15:16:33;;;;;;;;;5.67;5.67;;;;;;;;5079536;27;45494;-74
2022/06/03 15:18:58;;;;;;;;;9.00;7.00;;;;;;;;5081414;27;46353;-74
2022/06/03 15:21:32;;;;;;;;;6.00;6.00;;;;;;;;5073808;27;45358;-74
2022/06/03 15:24:01;;;;;;;;;6.00;6.00;;;;;;;;5086549;27;45357;-74
2022/06/03 15:26:31;;;;;;;;;5.67;5.67;;;;;;;;5077474;27;45503;-74
2022/06/03 15:29:19;;;;;;;;;8.00;7.00;;;;;;;;5062310;27;46284;-73
2022/06/03 15:31:46;;;;;;;;;6.00;6.00;;;;;;;;5078212;27;45508;-73
2022/06/03 15:34:12;;;;;;;;;6.00;6.00;;;;;;;;5078728;27;45303;-73
2022/06/03 15:36:43;;;;;;;;;10.67;7.67;;;;;;;;5075154;27;45473;-74
2022/06/03 15:39:25;;;;;;;;;6.67;6.67;;;;;;;;5077815;27;45498;-73
2022/06/03 15:41:51;;;;;;;;;7.00;7.00;;;;;;;;5054882;28;45394;-73
2022/06/03 15:44:35;;;;;;;;;6.00;5.67;;;;;;;;5061864;28;45355;-73
2022/06/03 15:47:08;;;;;;;;;7.33;7.00;;;;;;;;5077000;27;45366;-73
2022/06/03 15:49:34;;;;;;;;;10.00;9.00;;;;;;;;5085790;27;46047;-72
2022/06/03 15:51:59;;;;;;;;;7.00;6.67;;;;;;;;5076125;27;45522;-73